createdAt,value
2023-04-27T00:02:03.295Z,13.03
2023-04-27T00:04:30.586Z,13.01
2023-04-27T00:06:57.857Z,13.01
2023-04-27T00:09:24.806Z,13.00
2023-04-27T00:11:51.749Z,12.99
2023-04-27T00:14:18.699Z,12.96
2023-04-27T00:16:46.215Z,12.96
2023-04-27T00:19:14.161Z,12.90
2023-04-27T00:21:41.978Z,12.87
2023-04-27T00:24:08.900Z,12.86
2023-04-27T00:26:35.685Z,12.88
2023-04-27T00:29:02.553Z,12.92
2023-04-27T00:31:29.572Z,12.96
2023-04-27T00:33:56.574Z,12.99
2023-04-27T00:36:23.511Z,13.03
2023-04-27T00:38:50.465Z,13.06
2023-04-27T00:41:17.417Z,13.09
2023-04-27T00:43:44.983Z,13.11
2023-04-27T00:46:12.141Z,13.14
2023-04-27T00:48:40.672Z,13.16
2023-04-27T00:51:07.438Z,13.16
2023-04-27T00:53:34.415Z,13.15
2023-04-27T00:56:01.278Z,13.11
2023-04-27T00:58:29.446Z,13.07
2023-04-27T01:00:56.657Z,13.04
2023-04-27T01:03:23.736Z,13.03
2023-04-27T01:05:51.008Z,13.00
2023-04-27T01:08:17.802Z,12.98
2023-04-27T01:10:44.750Z,12.94
2023-04-27T01:13:12.095Z,12.89
2023-04-27T01:15:38.842Z,12.85
2023-04-27T01:18:10.132Z,12.80
2023-04-27T01:20:38.978Z,12.76
2023-04-27T01:23:06.446Z,12.74
2023-04-27T01:25:33.581Z,12.73
2023-04-27T01:28:02.804Z,12.73
2023-04-27T01:30:30.273Z,12.71
2023-04-27T01:32:58.946Z,12.73
2023-04-27T01:35:28.120Z,12.74
2023-04-27T01:37:58.897Z,12.75
2023-04-27T01:40:25.769Z,12.77
2023-04-27T01:42:53.688Z,12.76
2023-04-27T01:45:20.887Z,12.73
2023-04-27T01:47:47.706Z,12.69
2023-04-27T01:50:14.618Z,12.62
2023-04-27T01:52:41.446Z,12.58
2023-04-27T01:55:08.745Z,12.54
2023-04-27T01:57:35.846Z,12.51
2023-04-27T02:00:02.750Z,12.45
2023-04-27T02:02:47.565Z,12.40
2023-04-27T02:05:14.471Z,12.38
2023-04-27T02:07:41.225Z,12.35
2023-04-27T02:10:08.308Z,12.32
2023-04-27T02:12:35.208Z,12.30
2023-04-27T02:15:03.835Z,12.19
2023-04-27T02:17:31.784Z,12.17
2023-04-27T02:19:58.918Z,12.15
2023-04-27T02:22:27.221Z,12.17
2023-04-27T02:24:54.052Z,12.21
2023-04-27T02:27:20.896Z,12.21
2023-04-27T02:29:48.260Z,12.21
2023-04-27T02:32:15.739Z,12.21
2023-04-27T02:34:42.677Z,12.20
2023-04-27T02:37:09.545Z,12.19
2023-04-27T02:39:36.322Z,12.16
2023-04-27T02:42:05.874Z,12.14
2023-04-27T02:44:32.730Z,12.16
2023-04-27T02:46:59.741Z,12.21
2023-04-27T02:49:26.589Z,12.25
2023-04-27T02:51:53.315Z,12.29
2023-04-27T02:54:20.250Z,12.34
2023-04-27T02:56:47.166Z,12.40
2023-04-27T02:59:14.274Z,12.44
2023-04-27T03:01:41.516Z,12.47
2023-04-27T03:04:08.871Z,12.45
2023-04-27T03:06:35.911Z,12.35
2023-04-27T03:09:03.972Z,12.34
2023-04-27T03:11:31.023Z,12.33
2023-04-27T03:13:57.858Z,12.31
2023-04-27T03:16:24.714Z,12.28
2023-04-27T03:18:51.499Z,12.25
2023-04-27T03:21:18.411Z,12.22
2023-04-27T03:23:49.148Z,12.20
2023-04-27T03:26:16.320Z,12.21
2023-04-27T03:28:43.154Z,12.22
2023-04-27T03:31:10.568Z,12.24
2023-04-27T03:33:37.925Z,12.24
2023-04-27T03:36:05.009Z,12.21
2023-04-27T03:38:31.984Z,12.17
2023-04-27T03:40:58.941Z,12.20
2023-04-27T03:43:26.084Z,12.20
2023-04-27T03:45:53.138Z,12.17
2023-04-27T03:48:20.193Z,12.15
2023-04-27T03:50:47.264Z,12.11
2023-04-27T03:53:16.057Z,12.08
2023-04-27T03:55:44.116Z,12.06
2023-04-27T03:58:11.785Z,12.05
2023-04-27T04:00:46.923Z,12.07
2023-04-27T04:03:14.326Z,12.10
2023-04-27T04:05:41.468Z,12.14
2023-04-27T04:08:09.207Z,12.16
2023-04-27T04:10:36.002Z,12.14
2023-04-27T04:13:02.830Z,12.15
2023-04-27T04:15:29.812Z,12.18
2023-04-27T04:17:56.676Z,12.16
2023-04-27T04:20:23.647Z,12.18
2023-04-27T04:22:50.602Z,12.21
2023-04-27T04:25:18.105Z,12.20
2023-04-27T04:27:44.942Z,12.21
2023-04-27T04:30:12.831Z,12.23
2023-04-27T04:32:40.462Z,12.25
2023-04-27T04:35:07.807Z,12.27
2023-04-27T04:37:35.573Z,12.27
2023-04-27T04:40:10.395Z,12.28
2023-04-27T04:42:38.170Z,12.28
2023-04-27T04:45:05.959Z,12.27
2023-04-27T04:47:33.291Z,12.28
2023-04-27T04:50:00.353Z,12.29
2023-04-27T04:52:29.603Z,12.33
2023-04-27T04:54:56.538Z,12.36
2023-04-27T04:57:23.459Z,12.40
2023-04-27T04:59:50.414Z,12.44
2023-04-27T05:02:17.411Z,12.47
2023-04-27T05:04:44.401Z,12.50
2023-04-27T05:07:14.755Z,12.52
2023-04-27T05:09:42.166Z,12.53
2023-04-27T05:12:09.057Z,12.54
2023-04-27T05:14:36.105Z,12.53
2023-04-27T05:17:02.952Z,12.53
2023-04-27T05:19:30.235Z,12.55
2023-04-27T05:21:57.990Z,12.57
2023-04-27T05:24:25.441Z,12.56
2023-04-27T05:26:52.228Z,12.59
2023-04-27T05:29:19.010Z,12.63
2023-04-27T05:31:45.954Z,12.68
2023-04-27T05:34:13.551Z,12.75
2023-04-27T05:36:40.567Z,12.83
2023-04-27T05:39:07.802Z,12.91
2023-04-27T05:41:35.455Z,13.02
2023-04-27T05:44:02.278Z,13.19
2023-04-27T05:46:29.206Z,13.35
2023-04-27T05:48:56.081Z,13.53
2023-04-27T05:51:25.686Z,13.72
2023-04-27T05:53:55.466Z,13.92
2023-04-27T05:56:22.365Z,14.11
2023-04-27T05:58:49.184Z,14.29
2023-04-27T06:01:16.305Z,14.88
2023-04-27T06:03:44.129Z,15.82
2023-04-27T06:06:11.394Z,17.13
2023-04-27T06:08:39.627Z,17.87
2023-04-27T06:11:07.013Z,17.96
2023-04-27T06:13:34.144Z,17.93
2023-04-27T06:16:01.311Z,17.79
2023-04-27T06:18:28.196Z,17.65
2023-04-27T06:20:59.036Z,17.55
2023-04-27T06:23:25.848Z,17.52
2023-04-27T06:25:52.603Z,17.54
2023-04-27T06:28:19.477Z,17.78
2023-04-27T06:30:46.330Z,18.29
2023-04-27T06:33:13.171Z,18.73
2023-04-27T06:35:40.045Z,19.28
2023-04-27T06:38:08.054Z,20.05
2023-04-27T06:40:35.560Z,20.30
2023-04-27T06:43:02.511Z,20.92
2023-04-27T06:45:29.372Z,22.07
2023-04-27T06:47:56.391Z,22.68
2023-04-27T06:50:23.229Z,22.47
2023-04-27T06:52:50.216Z,22.62
2023-04-27T06:55:17.266Z,23.00
2023-04-27T06:57:44.121Z,22.61
2023-04-27T07:00:13.391Z,22.19
2023-04-27T07:02:40.368Z,22.15
2023-04-27T07:05:07.542Z,22.35
2023-04-27T07:07:34.483Z,22.25
2023-04-27T07:10:02.788Z,21.87
2023-04-27T07:12:30.152Z,21.36
2023-04-27T07:14:57.017Z,22.37
2023-04-27T07:17:23.973Z,23.83
2023-04-27T07:19:51.016Z,23.99
2023-04-27T07:22:18.034Z,23.18
2023-04-27T07:24:45.089Z,22.55
2023-04-27T07:27:16.173Z,22.17
2023-04-27T07:29:43.647Z,21.85
2023-04-27T07:32:10.878Z,22.23
2023-04-27T07:34:52.148Z,22.70
2023-04-27T07:37:21.195Z,23.75
2023-04-27T07:39:49.017Z,24.60
2023-04-27T07:42:16.219Z,24.34
2023-04-27T07:44:43.096Z,23.45
2023-04-27T07:47:10.766Z,22.92
2023-04-27T07:49:38.379Z,22.32
2023-04-27T07:52:05.676Z,21.90
2023-04-27T07:54:32.732Z,21.60
2023-04-27T07:56:59.703Z,21.43
2023-04-27T07:59:30.764Z,21.14
2023-04-27T08:02:15.013Z,20.92
2023-04-27T08:04:45.110Z,20.66
2023-04-27T08:07:12.801Z,20.47
2023-04-27T08:09:39.838Z,20.59
2023-04-27T08:12:06.778Z,20.58
2023-04-27T08:14:37.101Z,20.50
2023-04-27T08:17:04.006Z,20.73
2023-04-27T08:19:30.893Z,21.01
2023-04-27T08:21:57.657Z,21.28
2023-04-27T08:24:24.659Z,21.46
2023-04-27T08:26:51.671Z,21.58
2023-04-27T08:29:27.108Z,21.98
2023-04-27T08:31:56.783Z,22.91
2023-04-27T08:34:24.055Z,22.83
2023-04-27T08:36:51.150Z,22.69
2023-04-27T08:39:18.599Z,22.34
2023-04-27T08:41:45.661Z,21.96
2023-04-27T08:44:17.061Z,21.76
2023-04-27T08:46:44.251Z,21.57
2023-04-27T08:49:12.322Z,20.92
2023-04-27T08:51:40.447Z,20.96
2023-04-27T08:54:07.295Z,21.20
2023-04-27T08:56:34.617Z,21.01
2023-04-27T08:59:04.223Z,21.03
2023-04-27T09:01:32.297Z,21.12
2023-04-27T09:04:00.259Z,21.09
2023-04-27T09:06:34.123Z,21.13
2023-04-27T09:09:00.997Z,21.18
2023-04-27T09:11:31.778Z,21.15
2023-04-27T09:13:58.973Z,21.24
2023-04-27T09:16:26.563Z,21.38
2023-04-27T09:18:53.602Z,21.62
2023-04-27T09:21:27.718Z,21.71
2023-04-27T09:23:54.664Z,21.55
2023-04-27T09:26:38.896Z,21.34
2023-04-27T09:29:12.029Z,21.34
2023-04-27T09:31:39.239Z,21.35
2023-04-27T09:34:06.560Z,21.41
2023-04-27T09:36:33.603Z,21.51
2023-04-27T09:39:03.328Z,21.48
2023-04-27T09:41:30.200Z,21.36
2023-04-27T09:43:58.001Z,21.18
2023-04-27T09:46:26.267Z,20.99
2023-04-27T09:48:53.675Z,21.07
2023-04-27T09:51:20.745Z,21.14
2023-04-27T09:53:50.150Z,21.23
2023-04-27T09:56:35.526Z,21.32
2023-04-27T09:59:07.774Z,21.51
2023-04-27T10:02:09.978Z,21.66
2023-04-27T10:04:56.319Z,21.78
2023-04-27T10:07:23.294Z,21.94
2023-04-27T10:09:51.988Z,22.01
2023-04-27T10:12:18.885Z,22.00
2023-04-27T10:15:08.974Z,21.97
2023-04-27T10:17:36.554Z,21.92
2023-04-27T10:20:04.551Z,21.85
2023-04-27T10:22:52.526Z,21.79
2023-04-27T10:25:21.803Z,21.78
2023-04-27T10:27:50.183Z,21.70
2023-04-27T10:30:17.887Z,21.70
2023-04-27T10:32:54.956Z,21.69
2023-04-27T10:35:22.703Z,21.59
2023-04-27T10:37:49.681Z,21.70
2023-04-27T10:40:19.771Z,21.86
2023-04-27T10:42:48.356Z,21.78
2023-04-27T10:45:15.202Z,21.74
2023-04-27T10:47:42.973Z,21.84
2023-04-27T10:50:11.690Z,21.92
2023-04-27T10:52:46.497Z,21.93
2023-04-27T10:55:16.177Z,22.06
2023-04-27T10:57:50.251Z,22.09
2023-04-27T11:00:44.268Z,21.99
2023-04-27T11:03:14.782Z,21.80
2023-04-27T11:05:43.004Z,21.80
2023-04-27T11:08:10.623Z,21.83
2023-04-27T11:10:44.585Z,21.90
2023-04-27T11:13:12.543Z,21.84
2023-04-27T11:15:58.495Z,21.83
2023-04-27T11:18:36.468Z,21.82
2023-04-27T11:21:09.528Z,21.78
2023-04-27T11:23:39.832Z,21.86
2023-04-27T11:26:17.009Z,21.96
2023-04-27T11:28:44.398Z,21.90
2023-04-27T11:31:11.809Z,21.90
2023-04-27T11:33:40.393Z,21.90
2023-04-27T11:36:16.984Z,21.90
2023-04-27T11:38:43.863Z,21.98
2023-04-27T11:41:10.877Z,22.05
2023-04-27T11:43:42.275Z,22.17
2023-04-27T11:46:11.252Z,22.36
2023-04-27T11:48:40.392Z,22.45
2023-04-27T11:51:07.632Z,22.39
2023-04-27T11:53:40.731Z,22.37
2023-04-27T11:56:08.309Z,22.43
2023-04-27T11:58:36.275Z,22.30
2023-04-27T12:01:04.441Z,22.22
2023-04-27T12:03:32.012Z,22.25
2023-04-27T12:08:32.054Z,21.96
2023-04-27T12:10:58.997Z,21.77
2023-04-27T12:13:25.794Z,21.65
2023-04-27T12:15:53.111Z,21.54
2023-04-27T12:18:20.987Z,21.35
2023-04-27T12:20:47.950Z,21.27
2023-04-27T12:23:15.450Z,21.30
2023-04-27T12:25:44.292Z,21.34
2023-04-27T12:28:12.364Z,21.38
2023-04-27T12:30:39.332Z,21.47
2023-04-27T12:33:11.333Z,21.60
2023-04-27T12:35:38.348Z,21.70
2023-04-27T12:38:05.156Z,21.67
2023-04-27T12:40:32.038Z,21.68
2023-04-27T12:43:01.044Z,21.63
2023-04-27T12:45:28.903Z,21.57
2023-04-27T12:48:03.159Z,21.52
2023-04-27T12:50:30.923Z,21.54
2023-04-27T12:52:57.693Z,21.47
2023-04-27T12:55:33.223Z,21.40
2023-04-27T12:58:01.666Z,21.44
2023-04-27T13:00:29.882Z,21.48
2023-04-27T13:02:57.411Z,21.52
2023-04-27T13:05:24.477Z,21.57
2023-04-27T13:07:51.285Z,21.52
2023-04-27T13:10:18.099Z,21.50
2023-04-27T13:12:44.906Z,21.46
2023-04-27T13:15:11.886Z,21.42
2023-04-27T13:17:38.768Z,21.39
2023-04-27T13:20:07.469Z,21.33
2023-04-27T13:22:34.349Z,21.32
2023-04-27T13:25:01.495Z,21.30
2023-04-27T13:27:28.686Z,21.21
2023-04-27T13:29:56.194Z,21.19
2023-04-27T13:32:23.228Z,21.18
2023-04-27T13:34:50.119Z,21.14
2023-04-27T13:37:17.479Z,21.08
2023-04-27T13:39:44.332Z,21.03
2023-04-27T13:42:11.632Z,21.00
2023-04-27T13:44:38.552Z,20.96
2023-04-27T13:47:05.778Z,20.90
2023-04-27T13:49:32.848Z,20.84
2023-04-27T13:52:00.149Z,20.80
2023-04-27T13:54:27.496Z,20.76
2023-04-27T13:56:54.316Z,20.70
2023-04-27T13:59:21.924Z,20.65
2023-04-27T14:01:48.869Z,20.62
2023-04-27T14:04:15.822Z,20.56
2023-04-27T14:06:42.679Z,20.47
2023-04-27T14:09:09.574Z,20.39
2023-04-27T14:11:48.506Z,20.31
2023-04-27T14:14:22.645Z,20.25
2023-04-27T14:16:51.474Z,20.24
2023-04-27T14:19:20.608Z,20.17
2023-04-27T14:21:48.121Z,20.12
2023-04-27T14:24:15.057Z,20.07
2023-04-27T14:26:46.684Z,20.05
2023-04-27T14:29:13.885Z,19.98
2023-04-27T14:31:41.146Z,19.91
2023-04-27T14:34:08.391Z,19.86
2023-04-27T14:36:36.002Z,19.82
2023-04-27T14:39:03.176Z,19.77
2023-04-27T14:41:30.089Z,19.73
2023-04-27T14:43:56.993Z,19.69
2023-04-27T14:46:23.839Z,19.65
2023-04-27T14:48:51.558Z,19.55
2023-04-27T14:51:18.494Z,19.48
2023-04-27T14:53:45.391Z,19.42
2023-04-27T14:56:12.205Z,19.37
2023-04-27T14:58:39.246Z,19.28
2023-04-27T15:01:06.993Z,19.22
2023-04-27T15:03:34.204Z,19.13
2023-04-27T15:06:01.514Z,19.05
2023-04-27T15:08:29.316Z,18.97
2023-04-27T15:10:59.865Z,18.95
2023-04-27T15:13:27.353Z,18.91
2023-04-27T15:15:57.762Z,18.81
2023-04-27T15:18:24.903Z,18.67
2023-04-27T15:20:55.255Z,18.57
2023-04-27T15:23:22.307Z,18.46
2023-04-27T15:25:49.259Z,18.39
2023-04-27T15:28:16.758Z,18.30
2023-04-27T15:30:46.770Z,18.20
2023-04-27T15:33:14.286Z,18.12
2023-04-27T15:35:41.585Z,18.05
2023-04-27T15:38:10.187Z,17.98
2023-04-27T15:40:37.330Z,17.91
2023-04-27T15:43:05.093Z,17.83
2023-04-27T15:45:32.153Z,17.76
2023-04-27T15:47:59.098Z,17.73
2023-04-27T15:50:25.987Z,17.73
2023-04-27T15:52:53.184Z,17.75
2023-04-27T15:55:20.029Z,17.80
2023-04-27T15:57:46.841Z,17.84
2023-04-27T16:00:16.409Z,17.90
2023-04-27T16:02:43.993Z,17.95
2023-04-27T16:05:11.053Z,17.99
2023-04-27T16:07:39.857Z,18.02
2023-04-27T16:10:07.451Z,18.03
2023-04-27T16:12:34.721Z,18.02
2023-04-27T16:15:01.684Z,18.00
2023-04-27T16:17:29.288Z,18.00
2023-04-27T16:19:56.521Z,17.96
2023-04-27T16:22:23.503Z,17.91
2023-04-27T16:24:50.702Z,17.86
2023-04-27T16:27:17.757Z,17.83
2023-04-27T16:29:45.116Z,17.79
2023-04-27T16:32:12.003Z,17.77
2023-04-27T16:34:38.901Z,17.76
2023-04-27T16:37:05.730Z,17.75
2023-04-27T16:39:33.018Z,17.71
2023-04-27T16:41:59.803Z,17.65
2023-04-27T16:44:26.976Z,17.59
2023-04-27T16:46:53.884Z,17.55
2023-04-27T16:49:20.718Z,17.50
2023-04-27T16:51:47.671Z,17.46
2023-04-27T16:54:16.690Z,17.44
2023-04-27T16:56:43.724Z,17.36
2023-04-27T16:59:13.670Z,17.27
2023-04-27T17:01:40.858Z,17.17
2023-04-27T17:04:07.858Z,17.13
2023-04-27T17:06:35.051Z,17.11
2023-04-27T17:09:01.857Z,17.12
2023-04-27T17:11:28.713Z,17.11
2023-04-27T17:13:55.758Z,17.08
2023-04-27T17:16:23.625Z,17.07
2023-04-27T17:18:50.673Z,17.04
2023-04-27T17:21:17.547Z,16.98
2023-04-27T17:23:46.766Z,16.88
2023-04-27T17:26:16.139Z,16.77
2023-04-27T17:28:42.979Z,16.68
2023-04-27T17:31:09.797Z,16.61
2023-04-27T17:33:36.685Z,16.52
2023-04-27T17:36:03.832Z,16.43
2023-04-27T17:38:30.630Z,16.35
2023-04-27T17:40:57.487Z,16.28
2023-04-27T17:43:24.257Z,16.19
2023-04-27T17:45:51.232Z,16.13
2023-04-27T17:48:18.431Z,16.08
2023-04-27T17:50:45.276Z,16.04
2023-04-27T17:53:13.006Z,16.01
2023-04-27T17:55:39.907Z,15.99
2023-04-27T17:58:06.806Z,15.97
2023-04-27T18:00:33.779Z,15.94
2023-04-27T18:03:01.023Z,15.91
2023-04-27T18:05:28.037Z,15.86
2023-04-27T18:07:54.916Z,15.81
2023-04-27T18:10:21.764Z,15.76
2023-04-27T18:12:48.880Z,15.68
2023-04-27T18:15:15.894Z,15.56
2023-04-27T18:17:42.839Z,15.45
2023-04-27T18:20:10.794Z,15.35
2023-04-27T18:22:39.418Z,15.33
2023-04-27T18:25:06.495Z,15.30
2023-04-27T18:27:33.319Z,15.25
2023-04-27T18:30:00.152Z,15.18
2023-04-27T18:32:26.988Z,15.09
2023-04-27T18:34:54.079Z,14.99
2023-04-27T18:37:20.893Z,14.95
2023-04-27T18:39:47.670Z,14.92
2023-04-27T18:42:14.514Z,14.90
2023-04-27T18:44:41.837Z,14.90
2023-04-27T18:47:08.690Z,14.88
2023-04-27T18:49:35.479Z,14.87
2023-04-27T18:52:02.246Z,14.82
2023-04-27T18:54:29.016Z,14.77
2023-04-27T18:56:56.066Z,14.74
2023-04-27T18:59:22.923Z,14.69
2023-04-27T19:01:49.840Z,14.68
2023-04-27T19:04:16.949Z,14.66
2023-04-27T19:06:43.816Z,14.63
2023-04-27T19:09:11.042Z,14.60
2023-04-27T19:11:37.886Z,14.55
2023-04-27T19:14:04.956Z,14.58
2023-04-27T19:16:31.835Z,14.56
2023-04-27T19:18:58.731Z,14.52
2023-04-27T19:21:25.782Z,14.54
2023-04-27T19:23:52.576Z,14.56
2023-04-27T19:26:19.487Z,14.53
2023-04-27T19:28:46.461Z,14.49
2023-04-27T19:31:13.587Z,14.45
2023-04-27T19:33:46.680Z,14.40
2023-04-27T19:36:14.246Z,14.35
2023-04-27T19:38:41.290Z,14.34
2023-04-27T19:41:08.151Z,14.32
2023-04-27T19:43:34.989Z,14.28
2023-04-27T19:46:01.878Z,14.22
2023-04-27T19:48:28.788Z,14.18
2023-04-27T19:50:55.635Z,14.15
2023-04-27T19:53:22.485Z,14.11
2023-04-27T19:55:49.266Z,14.05
2023-04-27T19:58:16.220Z,14.01
2023-04-27T20:00:43.014Z,13.96
2023-04-27T20:03:10.409Z,13.90
2023-04-27T20:05:37.836Z,13.82
2023-04-27T20:08:04.818Z,13.71
2023-04-27T20:10:31.785Z,13.62
2023-04-27T20:12:58.583Z,13.54
2023-04-27T20:15:25.448Z,13.48
2023-04-27T20:17:55.399Z,13.43
2023-04-27T20:20:22.213Z,13.40
2023-04-27T20:22:49.062Z,13.38
2023-04-27T20:25:15.855Z,13.37
2023-04-27T20:27:42.637Z,13.33
2023-04-27T20:30:09.796Z,13.29
2023-04-27T20:32:37.144Z,13.28
2023-04-27T20:35:04.965Z,13.27
2023-04-27T20:37:32.583Z,13.27
2023-04-27T20:40:01.111Z,13.27
2023-04-27T20:42:29.782Z,13.26
2023-04-27T20:44:56.517Z,13.24
2023-04-27T20:47:23.377Z,13.22
2023-04-27T20:49:50.172Z,13.21
2023-04-27T20:52:17.106Z,13.22
2023-04-27T20:54:44.042Z,13.22
2023-04-27T20:57:14.300Z,13.23
2023-04-27T20:59:41.658Z,13.24
2023-04-27T21:02:08.671Z,13.27
2023-04-27T21:04:35.598Z,13.28
2023-04-27T21:07:02.679Z,13.26
2023-04-27T21:09:29.435Z,13.24
2023-04-27T21:11:56.186Z,13.22
2023-04-27T21:14:22.944Z,13.19
2023-04-27T21:16:49.747Z,13.17
2023-04-27T21:19:16.816Z,13.12
2023-04-27T21:21:43.622Z,13.08
2023-04-27T21:24:10.741Z,13.04
2023-04-27T21:26:37.576Z,13.03
2023-04-27T21:29:06.062Z,13.02
2023-04-27T21:31:33.468Z,13.01
2023-04-27T21:34:01.002Z,13.02
2023-04-27T21:36:27.924Z,13.02
2023-04-27T21:38:54.821Z,13.01
2023-04-27T21:41:21.845Z,13.03
2023-04-27T21:43:48.607Z,13.03
2023-04-27T21:46:15.650Z,13.05
2023-04-27T21:48:42.414Z,13.07
2023-04-27T21:51:09.325Z,13.08
2023-04-27T21:53:36.379Z,13.07
2023-04-27T21:56:03.232Z,13.06
2023-04-27T21:58:30.048Z,13.05
2023-04-27T22:00:56.798Z,13.06
2023-04-27T22:03:23.786Z,13.09
2023-04-27T22:05:50.709Z,13.10
2023-04-27T22:08:18.005Z,13.12
2023-04-27T22:10:45.135Z,13.13
2023-04-27T22:15:42.053Z,13.10
2023-04-27T22:18:09.067Z,13.10
2023-04-27T22:20:36.099Z,13.11
2023-04-27T22:23:02.946Z,13.11
2023-04-27T22:25:29.803Z,13.12
2023-04-27T22:27:56.589Z,13.09
2023-04-27T22:30:23.409Z,13.06
2023-04-27T22:32:50.319Z,13.02
2023-04-27T22:37:49.054Z,12.95
2023-04-27T22:40:16.039Z,12.92
2023-04-27T22:42:42.851Z,12.88
2023-04-27T22:45:10.460Z,12.86
2023-04-27T22:47:38.356Z,12.84
2023-04-27T22:50:06.182Z,12.81
2023-04-27T22:52:33.938Z,12.79
2023-04-27T22:55:02.328Z,12.78
2023-04-27T22:57:29.364Z,12.78
2023-04-27T22:59:56.563Z,12.77
2023-04-27T23:02:23.537Z,12.74
2023-04-27T23:04:50.624Z,12.70
2023-04-27T23:07:18.602Z,12.65
2023-04-27T23:09:45.924Z,12.61
2023-04-27T23:12:12.798Z,12.59
2023-04-27T23:14:42.421Z,12.56
2023-04-27T23:17:10.349Z,12.54
2023-04-27T23:19:37.344Z,12.53
2023-04-27T23:22:04.320Z,12.52
2023-04-27T23:24:31.446Z,12.54
2023-04-27T23:26:58.669Z,12.55
2023-04-27T23:29:25.764Z,12.54
2023-04-27T23:31:52.626Z,12.53
2023-04-27T23:34:19.558Z,12.52
2023-04-27T23:36:46.564Z,12.51
2023-04-27T23:39:13.311Z,12.50
2023-04-27T23:41:40.110Z,12.50
2023-04-27T23:44:06.962Z,12.49
2023-04-27T23:46:34.487Z,12.49
2023-04-27T23:49:01.677Z,12.47
2023-04-27T23:51:28.622Z,12.48
2023-04-27T23:53:55.483Z,12.50
2023-04-27T23:56:23.178Z,12.51
2023-04-27T23:58:50.278Z,12.51
